sensor_id;sensor_type;location;lat;lon;timestamp;temperature;humidity
19906;DHT22;10115;50.906;4.438;2023-02-01T00:00:24;7.00;99.90
19906;DHT22;10115;50.906;4.438;2023-02-01T00:02:50;7.00;99.90
19906;DHT22;10115;50.906;4.438;2023-02-01T00:05:15;7.00;99.90
19906;DHT22;10115;50.906;4.438;2023-02-01T00:07:41;7.00;99.90
19906;DHT22;10115;50.906;4.438;2023-02-01T00:10:08;7.00;99.90
19906;DHT22;10115;50.906;4.438;2023-02-01T00:12:33;7.00;99.90
19906;DHT22;10115;50.906;4.438;2023-02-01T00:14:59;7.00;99.90
19906;DHT22;10115;50.906;4.438;2023-02-01T00:17:25;7.00;99.90
19906;DHT22;10115;50.906;4.438;2023-02-01T00:19:51;6.90;99.90
19906;DHT22;10115;50.906;4.438;2023-02-01T00:22:16;6.90;99.90
19906;DHT22;10115;50.906;4.438;2023-02-01T00:24:42;7.00;99.90
19906;DHT22;10115;50.906;4.438;2023-02-01T00:27:08;7.00;99.90
19906;DHT22;10115;50.906;4.438;2023-02-01T00:29:33;7.00;99.90
19906;DHT22;10115;50.906;4.438;2023-02-01T00:31:59;7.10;99.90
19906;DHT22;10115;50.906;4.438;2023-02-01T00:34:25;7.10;99.90
19906;DHT22;10115;50.906;4.438;2023-02-01T00:36:51;7.10;99.90
19906;DHT22;10115;50.906;4.438;2023-02-01T00:39:17;7.10;99.90
19906;DHT22;10115;50.906;4.438;2023-02-01T00:41:43;7.10;99.90
19906;DHT22;10115;50.906;4.438;2023-02-01T00:44:12;7.00;99.90
19906;DHT22;10115;50.906;4.438;2023-02-01T00:46:37;7.00;99.90
19906;DHT22;10115;50.906;4.438;2023-02-01T00:49:03;6.90;99.90
19906;DHT22;10115;50.906;4.438;2023-02-01T00:51:29;6.90;99.90
19906;DHT22;10115;50.906;4.438;2023-02-01T00:53:55;6.90;99.90
19906;DHT22;10115;50.906;4.438;2023-02-01T00:56:21;6.90;99.90
19906;DHT22;10115;50.906;4.438;2023-02-01T00:58:47;6.90;99.90
19906;DHT22;10115;50.906;4.438;2023-02-01T01:01:17;6.90;99.90
19906;DHT22;10115;50.906;4.438;2023-02-01T01:03:45;7.00;99.90
19906;DHT22;10115;50.906;4.438;2023-02-01T01:06:16;6.90;99.90
19906;DHT22;10115;50.906;4.438;2023-02-01T01:08:43;7.00;99.90
19906;DHT22;10115;50.906;4.438;2023-02-01T01:11:14;7.00;99.90
19906;DHT22;10115;50.906;4.438;2023-02-01T01:13:41;7.00;99.90
19906;DHT22;10115;50.906;4.438;2023-02-01T01:16:08;7.00;99.90
19906;DHT22;10115;50.906;4.438;2023-02-01T01:18:34;7.00;99.90
19906;DHT22;10115;50.906;4.438;2023-02-01T01:21:00;7.00;99.90
19906;DHT22;10115;50.906;4.438;2023-02-01T01:23:27;7.00;99.90
19906;DHT22;10115;50.906;4.438;2023-02-01T01:25:54;7.00;99.90
19906;DHT22;10115;50.906;4.438;2023-02-01T01:28:19;7.00;99.90
19906;DHT22;10115;50.906;4.438;2023-02-01T01:30:45;6.90;99.90
19906;DHT22;10115;50.906;4.438;2023-02-01T01:33:11;6.90;99.90
19906;DHT22;10115;50.906;4.438;2023-02-01T01:35:36;6.90;99.90
19906;DHT22;10115;50.906;4.438;2023-02-01T01:38:02;6.90;99.90
19906;DHT22;10115;50.906;4.438;2023-02-01T01:40:29;6.90;99.90
19906;DHT22;10115;50.906;4.438;2023-02-01T01:42:55;6.90;99.90
19906;DHT22;10115;50.906;4.438;2023-02-01T01:45:26;6.80;99.90
19906;DHT22;10115;50.906;4.438;2023-02-01T01:47:56;6.80;99.90
19906;DHT22;10115;50.906;4.438;2023-02-01T01:50:29;6.80;99.90
19906;DHT22;10115;50.906;4.438;2023-02-01T01:52:58;6.90;99.90
19906;DHT22;10115;50.906;4.438;2023-02-01T01:55:25;6.90;99.90
19906;DHT22;10115;50.906;4.438;2023-02-01T01:58:07;6.90;99.90
19906;DHT22;10115;50.906;4.438;2023-02-01T02:00:34;6.80;99.90
19906;DHT22;10115;50.906;4.438;2023-02-01T02:03:17;6.80;99.90
19906;DHT22;10115;50.906;4.438;2023-02-01T02:05:44;6.80;99.90
19906;DHT22;10115;50.906;4.438;2023-02-01T02:08:10;6.80;99.90
19906;DHT22;10115;50.906;4.438;2023-02-01T02:10:37;6.80;99.90
19906;DHT22;10115;50.906;4.438;2023-02-01T02:13:22;6.80;99.90
19906;DHT22;10115;50.906;4.438;2023-02-01T02:18:49;6.80;99.90
19906;DHT22;10115;50.906;4.438;2023-02-01T02:24:16;6.70;99.90
19906;DHT22;10115;50.906;4.438;2023-02-01T02:36:00;6.60;99.90
19906;DHT22;10115;50.906;4.438;2023-02-01T02:38:19;6.60;99.90
19906;DHT22;10115;50.906;4.438;2023-02-01T02:43:38;6.60;99.90
19906;DHT22;10115;50.906;4.438;2023-02-01T02:46:38;6.60;99.90
19906;DHT22;10115;50.906;4.438;2023-02-01T02:49:33;6.60;99.90
19906;DHT22;10115;50.906;4.438;2023-02-01T02:52:21;6.60;99.90
19906;DHT22;10115;50.906;4.438;2023-02-01T02:55:07;6.60;99.90
19906;DHT22;10115;50.906;4.438;2023-02-01T02:57:35;6.50;99.90
19906;DHT22;10115;50.906;4.438;2023-02-01T03:00:24;6.50;99.90
19906;DHT22;10115;50.906;4.438;2023-02-01T03:03:11;6.60;99.90
19906;DHT22;10115;50.906;4.438;2023-02-01T03:05:56;6.50;99.90
19906;DHT22;10115;50.906;4.438;2023-02-01T03:08:24;6.50;99.90
19906;DHT22;10115;50.906;4.438;2023-02-01T03:11:07;6.40;99.90
19906;DHT22;10115;50.906;4.438;2023-02-01T03:13:57;6.50;99.90
19906;DHT22;10115;50.906;4.438;2023-02-01T03:16:33;6.50;99.90
19906;DHT22;10115;50.906;4.438;2023-02-01T03:19:02;6.40;99.90
19906;DHT22;10115;50.906;4.438;2023-02-01T03:21:56;6.40;99.90
19906;DHT22;10115;50.906;4.438;2023-02-01T03:25:12;6.40;99.90
19906;DHT22;10115;50.906;4.438;2023-02-01T03:27:22;6.50;99.90
19906;DHT22;10115;50.906;4.438;2023-02-01T03:29:56;6.40;99.90
19906;DHT22;10115;50.906;4.438;2023-02-01T03:32:24;6.30;99.90
19906;DHT22;10115;50.906;4.438;2023-02-01T03:34:50;6.30;99.90
19906;DHT22;10115;50.906;4.438;2023-02-01T03:37:23;6.30;99.90
19906;DHT22;10115;50.906;4.438;2023-02-01T03:40:07;6.30;99.90
19906;DHT22;10115;50.906;4.438;2023-02-01T03:42:52;6.30;99.90
19906;DHT22;10115;50.906;4.438;2023-02-01T03:45:31;6.30;99.90
19906;DHT22;10115;50.906;4.438;2023-02-01T03:48:00;6.30;99.90
19906;DHT22;10115;50.906;4.438;2023-02-01T03:50:28;6.20;99.90
19906;DHT22;10115;50.906;4.438;2023-02-01T03:53:03;6.30;99.90
19906;DHT22;10115;50.906;4.438;2023-02-01T03:55:31;6.20;99.90
19906;DHT22;10115;50.906;4.438;2023-02-01T03:58:17;6.20;99.90
19906;DHT22;10115;50.906;4.438;2023-02-01T04:00:54;6.10;99.90
19906;DHT22;10115;50.906;4.438;2023-02-01T04:03:20;6.20;99.90
19906;DHT22;10115;50.906;4.438;2023-02-01T04:05:48;6.20;99.90
19906;DHT22;10115;50.906;4.438;2023-02-01T04:08:13;6.20;99.90
19906;DHT22;10115;50.906;4.438;2023-02-01T04:10:39;6.10;99.90
19906;DHT22;10115;50.906;4.438;2023-02-01T04:13:05;6.10;99.90
19906;DHT22;10115;50.906;4.438;2023-02-01T04:15:31;6.00;99.90
19906;DHT22;10115;50.906;4.438;2023-02-01T04:17:56;5.90;99.90
19906;DHT22;10115;50.906;4.438;2023-02-01T04:20:22;5.90;99.90
19906;DHT22;10115;50.906;4.438;2023-02-01T04:22:48;5.90;99.90
19906;DHT22;10115;50.906;4.438;2023-02-01T04:25:13;5.90;99.90
19906;DHT22;10115;50.906;4.438;2023-02-01T04:27:39;5.90;99.90
19906;DHT22;10115;50.906;4.438;2023-02-01T04:30:05;5.80;99.90
19906;DHT22;10115;50.906;4.438;2023-02-01T04:32:35;5.80;99.90
19906;DHT22;10115;50.906;4.438;2023-02-01T04:35:01;5.80;99.90
19906;DHT22;10115;50.906;4.438;2023-02-01T04:37:30;5.80;99.90
19906;DHT22;10115;50.906;4.438;2023-02-01T04:39:55;5.80;99.90
19906;DHT22;10115;50.906;4.438;2023-02-01T04:42:21;5.80;99.90
19906;DHT22;10115;50.906;4.438;2023-02-01T04:44:47;5.70;99.90
19906;DHT22;10115;50.906;4.438;2023-02-01T04:47:13;5.70;99.90
19906;DHT22;10115;50.906;4.438;2023-02-01T04:49:39;5.70;99.90
19906;DHT22;10115;50.906;4.438;2023-02-01T04:52:05;5.70;99.90
19906;DHT22;10115;50.906;4.438;2023-02-01T04:54:31;5.70;99.90
19906;DHT22;10115;50.906;4.438;2023-02-01T04:56:57;5.70;99.90
19906;DHT22;10115;50.906;4.438;2023-02-01T04:59:22;5.60;99.90
19906;DHT22;10115;50.906;4.438;2023-02-01T05:01:48;5.60;99.90
19906;DHT22;10115;50.906;4.438;2023-02-01T05:04:13;5.60;99.90
19906;DHT22;10115;50.906;4.438;2023-02-01T05:06:39;5.50;99.90
19906;DHT22;10115;50.906;4.438;2023-02-01T05:09:05;5.50;99.90
19906;DHT22;10115;50.906;4.438;2023-02-01T05:11:30;5.40;99.90
19906;DHT22;10115;50.906;4.438;2023-02-01T05:14:15;5.50;99.90
19906;DHT22;10115;50.906;4.438;2023-02-01T05:16:40;5.40;99.90
19906;DHT22;10115;50.906;4.438;2023-02-01T05:19:06;5.40;99.90
19906;DHT22;10115;50.906;4.438;2023-02-01T05:21:32;5.40;99.90
19906;DHT22;10115;50.906;4.438;2023-02-01T05:23:57;5.30;99.90
19906;DHT22;10115;50.906;4.438;2023-02-01T05:26:41;5.30;99.90
19906;DHT22;10115;50.906;4.438;2023-02-01T05:29:08;5.40;99.90
19906;DHT22;10115;50.906;4.438;2023-02-01T05:31:34;5.30;99.90
19906;DHT22;10115;50.906;4.438;2023-02-01T05:34:00;5.30;99.90
19906;DHT22;10115;50.906;4.438;2023-02-01T05:36:25;5.30;99.90
19906;DHT22;10115;50.906;4.438;2023-02-01T05:38:51;5.30;99.90
19906;DHT22;10115;50.906;4.438;2023-02-01T05:41:17;5.20;99.90
19906;DHT22;10115;50.906;4.438;2023-02-01T05:43:43;5.20;99.90
19906;DHT22;10115;50.906;4.438;2023-02-01T05:46:08;5.30;99.90
19906;DHT22;10115;50.906;4.438;2023-02-01T05:48:38;5.20;99.90
19906;DHT22;10115;50.906;4.438;2023-02-01T05:51:04;5.30;99.90
19906;DHT22;10115;50.906;4.438;2023-02-01T05:53:30;5.20;99.90
19906;DHT22;10115;50.906;4.438;2023-02-01T05:55:56;5.20;99.90
19906;DHT22;10115;50.906;4.438;2023-02-01T05:58:21;5.20;99.90
19906;DHT22;10115;50.906;4.438;2023-02-01T06:00:47;5.20;99.90
19906;DHT22;10115;50.906;4.438;2023-02-01T06:03:13;5.20;99.90
19906;DHT22;10115;50.906;4.438;2023-02-01T06:05:38;5.20;99.90
19906;DHT22;10115;50.906;4.438;2023-02-01T06:08:04;5.20;99.90
19906;DHT22;10115;50.906;4.438;2023-02-01T06:10:30;5.20;99.90
19906;DHT22;10115;50.906;4.438;2023-02-01T06:12:56;5.20;99.90
19906;DHT22;10115;50.906;4.438;2023-02-01T06:15:21;5.20;99.90
19906;DHT22;10115;50.906;4.438;2023-02-01T06:17:47;5.20;99.90
19906;DHT22;10115;50.906;4.438;2023-02-01T06:20:14;5.20;99.90
19906;DHT22;10115;50.906;4.438;2023-02-01T06:22:40;5.20;99.90
19906;DHT22;10115;50.906;4.438;2023-02-01T06:25:08;5.10;99.90
19906;DHT22;10115;50.906;4.438;2023-02-01T06:27:34;5.10;99.90
19906;DHT22;10115;50.906;4.438;2023-02-01T06:30:01;5.00;99.90
19906;DHT22;10115;50.906;4.438;2023-02-01T06:32:28;5.10;99.90
19906;DHT22;10115;50.906;4.438;2023-02-01T06:34:53;5.10;99.90
19906;DHT22;10115;50.906;4.438;2023-02-01T06:37:20;5.10;99.90
19906;DHT22;10115;50.906;4.438;2023-02-01T06:39:46;5.10;99.90
19906;DHT22;10115;50.906;4.438;2023-02-01T06:42:12;5.10;99.90
19906;DHT22;10115;50.906;4.438;2023-02-01T06:44:37;5.10;99.90
19906;DHT22;10115;50.906;4.438;2023-02-01T06:47:04;5.20;99.90
19906;DHT22;10115;50.906;4.438;2023-02-01T06:49:30;5.10;99.90
19906;DHT22;10115;50.906;4.438;2023-02-01T06:51:55;5.10;99.90
19906;DHT22;10115;50.906;4.438;2023-02-01T06:54:21;5.10;99.90
19906;DHT22;10115;50.906;4.438;2023-02-01T06:56:47;5.10;99.90
19906;DHT22;10115;50.906;4.438;2023-02-01T06:59:13;5.10;99.90
19906;DHT22;10115;50.906;4.438;2023-02-01T07:01:39;5.10;99.90
19906;DHT22;10115;50.906;4.438;2023-02-01T07:04:04;5.10;99.90
19906;DHT22;10115;50.906;4.438;2023-02-01T07:06:30;5.10;99.90
19906;DHT22;10115;50.906;4.438;2023-02-01T07:08:57;5.10;99.90
19906;DHT22;10115;50.906;4.438;2023-02-01T07:11:22;5.10;99.90
19906;DHT22;10115;50.906;4.438;2023-02-01T07:13:48;5.10;99.90
19906;DHT22;10115;50.906;4.438;2023-02-01T07:16:18;5.10;99.90
19906;DHT22;10115;50.906;4.438;2023-02-01T07:18:44;5.10;99.90
19906;DHT22;10115;50.906;4.438;2023-02-01T07:21:11;5.20;99.90
19906;DHT22;10115;50.906;4.438;2023-02-01T07:23:37;5.20;99.90
19906;DHT22;10115;50.906;4.438;2023-02-01T07:26:06;5.10;99.90
19906;DHT22;10115;50.906;4.438;2023-02-01T07:28:34;5.10;99.90
19906;DHT22;10115;50.906;4.438;2023-02-01T07:31:11;5.20;99.90
19906;DHT22;10115;50.906;4.438;2023-02-01T07:33:39;5.20;99.90
19906;DHT22;10115;50.906;4.438;2023-02-01T07:36:06;5.20;99.90
19906;DHT22;10115;50.906;4.438;2023-02-01T07:38:32;5.20;99.90
19906;DHT22;10115;50.906;4.438;2023-02-01T07:40:59;5.20;99.90
19906;DHT22;10115;50.906;4.438;2023-02-01T07:43:26;5.10;99.90
19906;DHT22;10115;50.906;4.438;2023-02-01T07:45:53;5.10;99.90
19906;DHT22;10115;50.906;4.438;2023-02-01T07:48:21;5.10;99.90
19906;DHT22;10115;50.906;4.438;2023-02-01T07:50:46;5.10;99.90
19906;DHT22;10115;50.906;4.438;2023-02-01T07:53:12;5.10;99.90
19906;DHT22;10115;50.906;4.438;2023-02-01T07:55:39;5.20;99.90
19906;DHT22;10115;50.906;4.438;2023-02-01T07:58:05;5.10;99.90
19906;DHT22;10115;50.906;4.438;2023-02-01T08:00:30;5.10;99.90
19906;DHT22;10115;50.906;4.438;2023-02-01T08:03:15;5.10;99.90
19906;DHT22;10115;50.906;4.438;2023-02-01T08:05:41;5.10;99.90
19906;DHT22;10115;50.906;4.438;2023-02-01T08:08:10;5.10;99.90
19906;DHT22;10115;50.906;4.438;2023-02-01T08:10:36;5.20;99.90
19906;DHT22;10115;50.906;4.438;2023-02-01T08:13:02;5.20;99.90
19906;DHT22;10115;50.906;4.438;2023-02-01T08:15:29;5.20;99.90
19906;DHT22;10115;50.906;4.438;2023-02-01T08:17:55;5.30;99.90
19906;DHT22;10115;50.906;4.438;2023-02-01T08:20:21;5.30;99.90
19906;DHT22;10115;50.906;4.438;2023-02-01T08:22:51;5.40;99.90
19906;DHT22;10115;50.906;4.438;2023-02-01T08:25:17;5.40;99.90
19906;DHT22;10115;50.906;4.438;2023-02-01T08:27:43;5.50;99.90
19906;DHT22;10115;50.906;4.438;2023-02-01T08:30:10;5.50;99.90
19906;DHT22;10115;50.906;4.438;2023-02-01T08:32:36;5.60;99.90
19906;DHT22;10115;50.906;4.438;2023-02-01T08:35:02;5.70;99.90
19906;DHT22;10115;50.906;4.438;2023-02-01T08:37:28;5.70;99.90
19906;DHT22;10115;50.906;4.438;2023-02-01T08:39:54;5.70;99.90
19906;DHT22;10115;50.906;4.438;2023-02-01T08:42:19;5.70;99.90
19906;DHT22;10115;50.906;4.438;2023-02-01T08:45:05;5.80;99.90
19906;DHT22;10115;50.906;4.438;2023-02-01T08:47:33;5.80;99.90
19906;DHT22;10115;50.906;4.438;2023-02-01T08:49:59;5.80;99.90
19906;DHT22;10115;50.906;4.438;2023-02-01T08:52:24;5.80;99.90
19906;DHT22;10115;50.906;4.438;2023-02-01T08:54:50;5.80;99.90
19906;DHT22;10115;50.906;4.438;2023-02-01T08:57:16;5.90;99.90
19906;DHT22;10115;50.906;4.438;2023-02-01T08:59:42;5.90;99.90
19906;DHT22;10115;50.906;4.438;2023-02-01T09:02:12;6.00;99.90
19906;DHT22;10115;50.906;4.438;2023-02-01T09:04:39;6.00;99.90
19906;DHT22;10115;50.906;4.438;2023-02-01T09:07:04;6.10;99.90
19906;DHT22;10115;50.906;4.438;2023-02-01T09:09:30;6.10;99.90
19906;DHT22;10115;50.906;4.438;2023-02-01T09:11:55;6.10;99.90
19906;DHT22;10115;50.906;4.438;2023-02-01T09:14:21;6.20;99.90
19906;DHT22;10115;50.906;4.438;2023-02-01T09:16:47;6.20;99.90
19906;DHT22;10115;50.906;4.438;2023-02-01T09:19:12;6.20;99.90
19906;DHT22;10115;50.906;4.438;2023-02-01T09:21:39;6.30;99.90
19906;DHT22;10115;50.906;4.438;2023-02-01T09:24:05;6.30;99.90
19906;DHT22;10115;50.906;4.438;2023-02-01T09:26:30;6.30;99.90
19906;DHT22;10115;50.906;4.438;2023-02-01T09:28:56;6.40;99.90
19906;DHT22;10115;50.906;4.438;2023-02-01T09:31:22;6.50;99.90
19906;DHT22;10115;50.906;4.438;2023-02-01T09:33:47;6.60;99.90
19906;DHT22;10115;50.906;4.438;2023-02-01T09:36:13;6.60;99.90
19906;DHT22;10115;50.906;4.438;2023-02-01T09:38:39;6.60;99.90
19906;DHT22;10115;50.906;4.438;2023-02-01T09:44:05;6.70;99.90
19906;DHT22;10115;50.906;4.438;2023-02-01T09:46:34;6.70;99.90
19906;DHT22;10115;50.906;4.438;2023-02-01T09:49:10;6.80;99.90
19906;DHT22;10115;50.906;4.438;2023-02-01T09:51:41;6.90;99.90
19906;DHT22;10115;50.906;4.438;2023-02-01T09:54:29;7.00;99.90
19906;DHT22;10115;50.906;4.438;2023-02-01T09:57:00;7.10;99.90
19906;DHT22;10115;50.906;4.438;2023-02-01T09:59:42;7.10;99.90
19906;DHT22;10115;50.906;4.438;2023-02-01T10:02:23;7.20;99.90
19906;DHT22;10115;50.906;4.438;2023-02-01T10:04:50;7.20;99.90
19906;DHT22;10115;50.906;4.438;2023-02-01T10:13:49;7.40;99.90
19906;DHT22;10115;50.906;4.438;2023-02-01T10:16:48;7.40;99.90
19906;DHT22;10115;50.906;4.438;2023-02-01T10:19:22;7.50;99.90
19906;DHT22;10115;50.906;4.438;2023-02-01T10:24:40;7.60;99.90
19906;DHT22;10115;50.906;4.438;2023-02-01T10:27:11;7.60;99.90
19906;DHT22;10115;50.906;4.438;2023-02-01T10:29:40;7.60;99.90
19906;DHT22;10115;50.906;4.438;2023-02-01T10:32:15;7.70;99.90
19906;DHT22;10115;50.906;4.438;2023-02-01T10:34:42;7.70;99.90
19906;DHT22;10115;50.906;4.438;2023-02-01T10:39:48;7.80;99.90
19906;DHT22;10115;50.906;4.438;2023-02-01T10:42:16;7.90;99.90
19906;DHT22;10115;50.906;4.438;2023-02-01T10:44:45;8.00;99.90
19906;DHT22;10115;50.906;4.438;2023-02-01T10:47:14;8.10;99.90
19906;DHT22;10115;50.906;4.438;2023-02-01T10:50:04;8.10;99.90
19906;DHT22;10115;50.906;4.438;2023-02-01T10:52:51;8.10;99.90
19906;DHT22;10115;50.906;4.438;2023-02-01T10:55:40;8.20;99.90
19906;DHT22;10115;50.906;4.438;2023-02-01T10:58:15;8.30;99.90
19906;DHT22;10115;50.906;4.438;2023-02-01T11:03:27;8.40;99.90
19906;DHT22;10115;50.906;4.438;2023-02-01T11:05:56;8.40;99.90
19906;DHT22;10115;50.906;4.438;2023-02-01T11:08:23;8.30;99.90
19906;DHT22;10115;50.906;4.438;2023-02-01T11:10:58;8.40;99.90
19906;DHT22;10115;50.906;4.438;2023-02-01T11:13:29;8.50;99.90
19906;DHT22;10115;50.906;4.438;2023-02-01T11:15:56;8.60;99.90
19906;DHT22;10115;50.906;4.438;2023-02-01T11:18:28;8.70;99.90
19906;DHT22;10115;50.906;4.438;2023-02-01T11:20:54;8.70;99.90
19906;DHT22;10115;50.906;4.438;2023-02-01T11:23:23;8.70;99.90
19906;DHT22;10115;50.906;4.438;2023-02-01T11:25:55;8.70;99.90
19906;DHT22;10115;50.906;4.438;2023-02-01T11:28:24;8.70;99.90
19906;DHT22;10115;50.906;4.438;2023-02-01T11:30:53;8.80;99.90
19906;DHT22;10115;50.906;4.438;2023-02-01T11:33:24;8.80;99.90
19906;DHT22;10115;50.906;4.438;2023-02-01T11:35:52;8.70;99.90
19906;DHT22;10115;50.906;4.438;2023-02-01T11:40:52;8.60;99.90
19906;DHT22;10115;50.906;4.438;2023-02-01T11:43:28;8.60;99.90
19906;DHT22;10115;50.906;4.438;2023-02-01T11:48:23;8.60;99.90
19906;DHT22;10115;50.906;4.438;2023-02-01T11:54:13;8.70;99.90
19906;DHT22;10115;50.906;4.438;2023-02-01T12:16:54;9.20;99.90
19906;DHT22;10115;50.906;4.438;2023-02-01T12:25:28;9.40;99.90
19906;DHT22;10115;50.906;4.438;2023-02-01T12:33:40;9.80;99.90
19906;DHT22;10115;50.906;4.438;2023-02-01T12:39:31;9.80;99.90
19906;DHT22;10115;50.906;4.438;2023-02-01T12:42:21;9.90;99.90
19906;DHT22;10115;50.906;4.438;2023-02-01T12:47:56;9.90;99.90
19906;DHT22;10115;50.906;4.438;2023-02-01T12:50:34;10.00;99.90
19906;DHT22;10115;50.906;4.438;2023-02-01T12:53:12;9.80;99.90
19906;DHT22;10115;50.906;4.438;2023-02-01T12:55:43;9.80;99.90
19906;DHT22;10115;50.906;4.438;2023-02-01T13:01:18;10.00;99.90
19906;DHT22;10115;50.906;4.438;2023-02-01T13:06:47;10.00;99.90
19906;DHT22;10115;50.906;4.438;2023-02-01T13:12:15;10.00;99.90
19906;DHT22;10115;50.906;4.438;2023-02-01T13:14:51;10.10;99.90
19906;DHT22;10115;50.906;4.438;2023-02-01T13:17:27;10.20;99.90
19906;DHT22;10115;50.906;4.438;2023-02-01T13:20:21;10.20;99.90
19906;DHT22;10115;50.906;4.438;2023-02-01T13:22:58;10.10;99.90
19906;DHT22;10115;50.906;4.438;2023-02-01T13:25:47;10.10;99.90
19906;DHT22;10115;50.906;4.438;2023-02-01T13:29:06;10.30;99.90
19906;DHT22;10115;50.906;4.438;2023-02-01T13:42:47;10.40;99.90
19906;DHT22;10115;50.906;4.438;2023-02-01T13:45:17;10.30;99.90
19906;DHT22;10115;50.906;4.438;2023-02-01T13:47:47;10.40;99.90
19906;DHT22;10115;50.906;4.438;2023-02-01T13:50:24;10.40;99.90
19906;DHT22;10115;50.906;4.438;2023-02-01T13:52:55;10.40;99.90
19906;DHT22;10115;50.906;4.438;2023-02-01T13:57:50;10.40;99.90
19906;DHT22;10115;50.906;4.438;2023-02-01T14:00:37;10.20;99.90
19906;DHT22;10115;50.906;4.438;2023-02-01T14:03:14;10.20;99.90
19906;DHT22;10115;50.906;4.438;2023-02-01T14:08:11;10.20;99.90
19906;DHT22;10115;50.906;4.438;2023-02-01T14:10:55;10.20;99.90
19906;DHT22;10115;50.906;4.438;2023-02-01T14:13:41;10.00;99.90
19906;DHT22;10115;50.906;4.438;2023-02-01T14:16:14;10.00;99.90
19906;DHT22;10115;50.906;4.438;2023-02-01T14:23:58;9.90;99.90
19906;DHT22;10115;50.906;4.438;2023-02-01T14:26:44;9.90;99.90
19906;DHT22;10115;50.906;4.438;2023-02-01T14:32:02;9.90;99.90
19906;DHT22;10115;50.906;4.438;2023-02-01T14:44:53;9.70;99.90
19906;DHT22;10115;50.906;4.438;2023-02-01T14:49:55;9.60;99.90
19906;DHT22;10115;50.906;4.438;2023-02-01T14:52:28;9.60;99.90
19906;DHT22;10115;50.906;4.438;2023-02-01T14:54:57;9.60;99.90
19906;DHT22;10115;50.906;4.438;2023-02-01T14:57:26;9.60;99.90
19906;DHT22;10115;50.906;4.438;2023-02-01T15:00:01;9.60;99.90
19906;DHT22;10115;50.906;4.438;2023-02-01T15:02:31;9.50;99.90
19906;DHT22;10115;50.906;4.438;2023-02-01T15:05:00;9.50;99.90
19906;DHT22;10115;50.906;4.438;2023-02-01T15:07:27;9.50;99.90
19906;DHT22;10115;50.906;4.438;2023-02-01T15:09:56;9.50;99.90
19906;DHT22;10115;50.906;4.438;2023-02-01T15:12:24;9.50;99.90
19906;DHT22;10115;50.906;4.438;2023-02-01T15:15:18;9.40;99.90
19906;DHT22;10115;50.906;4.438;2023-02-01T15:17:55;9.40;99.90
19906;DHT22;10115;50.906;4.438;2023-02-01T15:20:23;9.40;99.90
19906;DHT22;10115;50.906;4.438;2023-02-01T15:23:00;9.40;99.90
19906;DHT22;10115;50.906;4.438;2023-02-01T15:25:29;9.40;99.90
19906;DHT22;10115;50.906;4.438;2023-02-01T15:27:55;9.40;99.90
19906;DHT22;10115;50.906;4.438;2023-02-01T15:30:25;9.40;99.90
19906;DHT22;10115;50.906;4.438;2023-02-01T15:33:03;9.30;99.90
19906;DHT22;10115;50.906;4.438;2023-02-01T15:35:33;9.30;99.90
19906;DHT22;10115;50.906;4.438;2023-02-01T15:41:16;9.20;99.90
19906;DHT22;10115;50.906;4.438;2023-02-01T15:44:12;9.20;99.90
19906;DHT22;10115;50.906;4.438;2023-02-01T15:46:42;9.20;99.90
19906;DHT22;10115;50.906;4.438;2023-02-01T15:49:27;9.20;99.90
19906;DHT22;10115;50.906;4.438;2023-02-01T15:51:54;9.10;99.90
19906;DHT22;10115;50.906;4.438;2023-02-01T15:54:24;9.10;99.90
19906;DHT22;10115;50.906;4.438;2023-02-01T15:56:53;9.10;99.90
19906;DHT22;10115;50.906;4.438;2023-02-01T15:59:25;9.10;99.90
19906;DHT22;10115;50.906;4.438;2023-02-01T16:01:53;9.10;99.90
19906;DHT22;10115;50.906;4.438;2023-02-01T16:04:22;9.00;99.90
19906;DHT22;10115;50.906;4.438;2023-02-01T16:06:59;9.00;99.90
19906;DHT22;10115;50.906;4.438;2023-02-01T16:09:47;9.10;99.90
19906;DHT22;10115;50.906;4.438;2023-02-01T16:12:29;9.00;99.90
19906;DHT22;10115;50.906;4.438;2023-02-01T16:14:55;9.00;99.90
19906;DHT22;10115;50.906;4.438;2023-02-01T16:17:21;9.00;99.90
19906;DHT22;10115;50.906;4.438;2023-02-01T16:19:47;9.00;99.90
19906;DHT22;10115;50.906;4.438;2023-02-01T16:22:13;9.00;99.90
19906;DHT22;10115;50.906;4.438;2023-02-01T16:24:38;9.00;99.90
19906;DHT22;10115;50.906;4.438;2023-02-01T16:27:04;9.00;99.90
19906;DHT22;10115;50.906;4.438;2023-02-01T16:29:32;9.00;99.90
19906;DHT22;10115;50.906;4.438;2023-02-01T16:31:58;9.00;99.90
19906;DHT22;10115;50.906;4.438;2023-02-01T16:34:25;9.00;99.90
19906;DHT22;10115;50.906;4.438;2023-02-01T16:36:51;8.90;99.90
19906;DHT22;10115;50.906;4.438;2023-02-01T16:39:18;8.90;99.90
19906;DHT22;10115;50.906;4.438;2023-02-01T16:41:44;8.90;99.90
19906;DHT22;10115;50.906;4.438;2023-02-01T16:44:13;8.90;99.90
19906;DHT22;10115;50.906;4.438;2023-02-01T16:46:41;8.90;99.90
19906;DHT22;10115;50.906;4.438;2023-02-01T16:49:24;8.90;99.90
19906;DHT22;10115;50.906;4.438;2023-02-01T16:51:51;8.90;99.90
19906;DHT22;10115;50.906;4.438;2023-02-01T16:54:20;8.80;99.90
19906;DHT22;10115;50.906;4.438;2023-02-01T16:56:46;8.80;99.90
19906;DHT22;10115;50.906;4.438;2023-02-01T16:59:12;8.80;99.90
19906;DHT22;10115;50.906;4.438;2023-02-01T17:01:38;8.80;99.90
19906;DHT22;10115;50.906;4.438;2023-02-01T17:04:06;8.80;99.90
19906;DHT22;10115;50.906;4.438;2023-02-01T17:06:32;8.80;99.90
19906;DHT22;10115;50.906;4.438;2023-02-01T17:08:58;8.80;99.90
19906;DHT22;10115;50.906;4.438;2023-02-01T17:11:27;8.80;99.90
19906;DHT22;10115;50.906;4.438;2023-02-01T17:14:09;8.80;99.90
19906;DHT22;10115;50.906;4.438;2023-02-01T17:16:39;8.70;99.90
19906;DHT22;10115;50.906;4.438;2023-02-01T17:19:09;8.80;99.90
19906;DHT22;10115;50.906;4.438;2023-02-01T17:21:47;8.70;99.90
19906;DHT22;10115;50.906;4.438;2023-02-01T17:24:16;8.70;99.90
19906;DHT22;10115;50.906;4.438;2023-02-01T17:26:42;8.70;99.90
19906;DHT22;10115;50.906;4.438;2023-02-01T17:29:09;8.70;99.90
19906;DHT22;10115;50.906;4.438;2023-02-01T17:31:43;8.70;99.90
19906;DHT22;10115;50.906;4.438;2023-02-01T17:34:15;8.70;99.90
19906;DHT22;10115;50.906;4.438;2023-02-01T17:36:42;8.70;99.90
19906;DHT22;10115;50.906;4.438;2023-02-01T17:39:11;8.70;99.90
19906;DHT22;10115;50.906;4.438;2023-02-01T17:41:58;8.70;99.90
19906;DHT22;10115;50.906;4.438;2023-02-01T17:44:24;8.70;99.90
19906;DHT22;10115;50.906;4.438;2023-02-01T17:46:50;8.70;99.90
19906;DHT22;10115;50.906;4.438;2023-02-01T17:49:15;8.60;99.90
19906;DHT22;10115;50.906;4.438;2023-02-01T17:51:41;8.60;99.90
19906;DHT22;10115;50.906;4.438;2023-02-01T17:54:14;8.60;99.90
19906;DHT22;10115;50.906;4.438;2023-02-01T17:56:41;8.60;99.90
19906;DHT22;10115;50.906;4.438;2023-02-01T17:59:07;8.60;99.90
19906;DHT22;10115;50.906;4.438;2023-02-01T18:01:32;8.60;99.90
19906;DHT22;10115;50.906;4.438;2023-02-01T18:03:58;8.60;99.90
19906;DHT22;10115;50.906;4.438;2023-02-01T18:06:25;8.50;99.90
19906;DHT22;10115;50.906;4.438;2023-02-01T18:08:51;8.60;99.90
19906;DHT22;10115;50.906;4.438;2023-02-01T18:11:23;8.60;99.90
19906;DHT22;10115;50.906;4.438;2023-02-01T18:13:50;8.50;99.90